Main page
METAR-TAF:

METAR-TAF

Airports :

Dubai, United Arab Emirates

Dubai International Airport

latitude: 25-15-10N, longitude: 055-21-52E, elevation: 8 m

Current weather observation

The report was made 55 minutes ago, at 11:00 UTC
Wind 15 kt from the West/Northwest
Temperature 40°C
Humidity 26%
Pressure 998 hPa
Visibility: 9000 m

METAR: OMDB 211100Z 30015KT 9000 NSC 40/17 Q0998 NOSIG

Time: 15:55 (11:55 UTC)

Forecast

The report was made 54 minutes ago, at 11:01 UTC
Forecast valid from 21 at 12 UTC to 22 at 18 UTC
Wind 15 kt from the North/Northwest
Visibility: 9000 m
Becoming
from 21 at 15 UTC to 21 at 17 UTC
Wind 5 kt from the East
Becoming
from 22 at 08 UTC to 22 at 10 UTC
Wind 12 kt from the North/Northwest
Becoming
from 22 at 15 UTC to 22 at 17 UTC
Wind 5 kt from the Northeast

TAF: OMDB 211101Z 2112/2218 33015KT 9000 NSC BECMG 2115/2117 09005KT BECMG 2208/2210 33012KT BECMG 2215/2217 05005KT

Weather observations and forecasts of more than 4000 airports (METAR and TAF reports).

The available stations are represented by yellow and red dots on the map.

Hover mouse over dot to see the name of the station.

Then click to see weather observations and forecasts.

To change the map : click on the green buttons with a black cross to zoom in, on the green button with a dash to zoom out, or on the green arrows for adjacent maps.


METAR-TAF: